Time;durP1;ratioP1;P1;durP2;ratioP2;P2;SDS_P1;SDS_P2;PMS_P1;PMS_P2;Temp;Humidity;BMP_temperature;BMP_pressure;BME280_temperature;BME280_humidity;BME280_pressure;Samples;Min_cycle;Max_cycle;Signal;HPM_P1;HPM_P2
2020/12/29 00:01:42;;;;;;;0.32;0.32;;;;;;;3.21;86.92;97756.56;5104132;28;20483;-65
2020/12/29 00:04:11;;;;;;;0.30;0.30;;;;;;;3.15;86.67;97758.41;5104260;28;20023;-65
2020/12/29 00:06:47;;;;;;;0.95;0.95;;;;;;;3.10;87.08;97767.06;5104078;28;20023;-64
2020/12/29 00:09:14;;;;;;;0.40;0.40;;;;;;;3.09;87.23;97760.25;5103776;28;20035;-64
2020/12/29 00:11:40;;;;;;;0.32;0.32;;;;;;;3.15;86.82;97753.28;5103823;28;20016;-64
2020/12/29 00:14:06;;;;;;;0.30;0.30;;;;;;;3.09;87.24;97746.56;5103988;28;20059;-64
2020/12/29 00:16:31;;;;;;;0.30;0.30;;;;;;;3.15;86.79;97746.44;5104108;28;20059;-64
2020/12/29 00:18:56;;;;;;;0.30;0.30;;;;;;;3.12;86.87;97741.38;5103860;28;20092;-64
2020/12/29 00:21:22;;;;;;;0.30;0.30;;;;;;;3.04;87.26;97739.00;5103912;28;20028;-64
2020/12/29 00:23:48;;;;;;;0.30;0.30;;;;;;;3.11;87.14;97737.16;5103591;28;20441;-64
2020/12/29 00:26:15;;;;;;;0.30;0.30;;;;;;;3.06;87.36;97738.97;5102461;28;20023;-64
2020/12/29 00:28:41;;;;;;;0.38;0.38;;;;;;;3.15;87.01;97735.34;5103980;28;20038;-64
2020/12/29 00:31:07;;;;;;;0.40;0.40;;;;;;;3.21;86.44;97741.19;5103655;28;20020;-64
2020/12/29 00:33:32;;;;;;;0.30;0.30;;;;;;;3.08;86.89;97740.59;5103744;28;20016;-63
2020/12/29 00:35:58;;;;;;;0.30;0.30;;;;;;;3.06;87.07;97739.81;5103436;28;20055;-63
2020/12/29 00:38:24;;;;;;;0.40;0.40;;;;;;;3.07;87.25;97744.06;5103513;28;20032;-64
2020/12/29 00:40:49;;;;;;;0.40;0.40;;;;;;;3.08;87.06;97744.91;5103658;28;20027;-63
2020/12/29 00:43:14;;;;;;;0.30;0.30;;;;;;;3.09;87.13;97749.16;5103551;28;20039;-64
2020/12/29 00:45:40;;;;;;;0.30;0.30;;;;;;;3.08;86.78;97740.59;5103400;28;20117;-64
2020/12/29 00:48:05;;;;;;;2.80;2.67;;;;;;;3.10;86.77;97743.97;5103922;28;20055;-64
2020/12/29 00:50:30;;;;;;;0.40;0.40;;;;;;;3.08;87.07;97744.91;5103663;28;20020;-63
2020/12/29 00:52:56;;;;;;;0.40;0.40;;;;;;;3.07;87.42;97748.31;5103674;28;20028;-65
2020/12/29 00:55:21;;;;;;;0.40;0.40;;;;;;;3.09;87.27;97742.31;5103363;28;20020;-64
2020/12/29 00:57:46;;;;;;;0.40;0.40;;;;;;;3.07;87.15;97743.19;5103695;28;20020;-64
2020/12/29 01:00:12;;;;;;;0.30;0.30;;;;;;;3.06;87.40;97754.34;5123636;28;20020;-64
2020/12/29 01:02:37;;;;;;;0.30;0.30;;;;;;;3.11;87.59;97747.41;5107658;28;20564;-63
2020/12/29 01:05:03;;;;;;;1.17;1.05;;;;;;;3.11;87.52;97755.09;5107449;28;20049;-64
2020/12/29 01:07:28;;;;;;;0.40;0.40;;;;;;;3.13;87.46;97757.63;5107689;28;20589;-63
2020/12/29 01:09:53;;;;;;;0.38;0.38;;;;;;;3.12;87.36;97761.03;5107386;28;20051;-63
2020/12/29 01:12:19;;;;;;;0.30;0.30;;;;;;;3.14;87.42;97762.72;5107591;28;20353;-63
2020/12/29 01:14:44;;;;;;;0.60;0.60;;;;;;;3.14;87.35;97761.88;5107383;28;20088;-64
2020/12/29 01:17:13;;;;;;;0.40;0.40;;;;;;;3.14;87.50;97775.53;5107428;28;20027;-64
2020/12/29 01:19:38;;;;;;;0.40;0.40;;;;;;;3.16;87.19;97755.84;5107299;28;20433;-63
2020/12/29 01:22:03;;;;;;;3.85;3.47;;;;;;;3.16;86.77;97760.97;5107385;28;20507;-63
2020/12/29 01:24:29;;;;;;;0.30;0.30;;;;;;;3.12;87.26;97751.66;5122929;28;20115;-65
2020/12/29 01:26:56;;;;;;;0.30;0.30;;;;;;;3.12;87.11;97767.03;5107328;28;20035;-63
2020/12/29 01:29:22;;;;;;;1.45;1.45;;;;;;;3.08;87.44;97765.41;5107440;28;20073;-64
2020/12/29 01:31:47;;;;;;;0.40;0.40;;;;;;;3.12;87.54;97767.03;5107202;28;20375;-62
2020/12/29 01:34:12;;;;;;;0.30;0.30;;;;;;;3.16;87.49;97765.25;5107185;28;20023;-64
2020/12/29 01:36:38;;;;;;;0.30;0.30;;;;;;;3.21;86.76;97768.56;5106707;28;20138;-63
2020/12/29 01:39:03;;;;;;;0.30;0.30;;;;;;;3.15;87.14;97772.09;5106836;28;20054;-65
2020/12/29 01:41:32;;;;;;;1.70;1.60;;;;;;;3.14;87.50;97775.53;5107063;28;20031;-64
2020/12/29 01:44:11;;;;;;;0.30;0.30;;;;;;;3.15;87.32;97779.78;5106919;28;20024;-64
2020/12/29 01:46:40;;;;;;;0.30;0.30;;;;;;;3.15;87.44;97782.34;5106943;28;20526;-64
2020/12/29 01:49:06;;;;;;;0.35;0.35;;;;;;;3.17;87.22;97785.72;5106610;28;20047;-63
2020/12/29 01:51:31;;;;;;;0.30;0.30;;;;;;;3.19;86.98;97783.13;5106792;28;20027;-64
2020/12/29 01:53:56;;;;;;;2.45;2.35;;;;;;;3.15;87.05;97778.94;5106480;28;20388;-63
2020/12/29 01:56:22;;;;;;;0.35;0.35;;;;;;;3.15;87.23;97782.34;5106599;28;20105;-64
2020/12/29 01:58:48;;;;;;;0.30;0.30;;;;;;;3.17;87.03;97785.72;5106874;28;20047;-64
2020/12/29 02:01:13;;;;;;;0.30;0.30;;;;;;;3.15;86.71;97766.97;5106631;28;20031;-63
2020/12/29 02:03:38;;;;;;;0.40;0.40;;;;;;;3.14;86.92;97775.53;5106454;28;20035;-62
2020/12/29 02:06:04;;;;;;;0.32;0.32;;;;;;;3.11;87.28;97773.03;5106429;28;20101;-64
2020/12/29 02:08:29;;;;;;;0.32;0.32;;;;;;;3.09;87.17;97762.81;5105996;28;20039;-63
2020/12/29 02:10:56;;;;;;;0.30;0.30;;;;;;;3.08;87.26;97768.78;5105033;28;20438;-64
2020/12/29 02:13:21;;;;;;;0.30;0.30;;;;;;;3.13;87.44;97781.53;5106360;28;20035;-63
2020/12/29 02:15:47;;;;;;;0.40;0.40;;;;;;;3.17;87.53;97772.91;5106297;28;20028;-62
2020/12/29 02:18:12;;;;;;;0.30;0.30;;;;;;;3.18;87.59;97774.59;5104923;28;20176;-64
2020/12/29 02:20:38;;;;;;;0.30;0.30;;;;;;;3.25;87.37;97770.19;5106316;28;20137;-64
2020/12/29 02:23:03;;;;;;;0.40;0.40;;;;;;;3.25;87.30;97771.88;5104957;28;20062;-64
2020/12/29 02:25:28;;;;;;;0.40;0.40;;;;;;;3.25;87.51;97769.31;5105961;28;20035;-64
2020/12/29 02:27:54;;;;;;;0.32;0.32;;;;;;;3.26;87.28;97771.03;5121792;28;20032;-64
2020/12/29 02:30:20;;;;;;;0.47;0.47;;;;;;;3.21;87.44;97761.69;5105865;28;20024;-64
2020/12/29 02:32:46;;;;;;;0.30;0.30;;;;;;;3.29;87.44;97778.66;5106043;28;20027;-64
2020/12/29 02:35:15;;;;;;;0.30;0.30;;;;;;;3.26;87.22;97776.16;5105845;28;20220;-64
2020/12/29 02:37:40;;;;;;;0.40;0.40;;;;;;;3.28;87.60;97782.94;5105782;28;20040;-64
2020/12/29 02:40:06;;;;;;;0.35;0.35;;;;;;;3.26;87.23;97778.72;5105826;28;20031;-64
2020/12/29 02:42:31;;;;;;;0.30;0.30;;;;;;;3.25;87.16;97772.75;5105839;28;20025;-64
2020/12/29 02:44:57;;;;;;;0.98;0.98;;;;;;;3.26;87.54;97771.84;5105527;28;20030;-64
2020/12/29 02:47:22;;;;;;;0.40;0.40;;;;;;;3.28;87.24;97774.38;5105839;28;20028;-64
2020/12/29 02:49:48;;;;;;;0.30;0.30;;;;;;;3.26;87.43;97771.84;5105592;28;20016;-64
2020/12/29 02:52:13;;;;;;;11.50;7.78;;;;;;;3.24;87.40;97767.66;5105704;28;20028;-64
2020/12/29 02:54:38;;;;;;;0.30;0.30;;;;;;;3.16;87.56;97750.72;5105063;28;20031;-63
2020/12/29 02:57:04;;;;;;;0.32;0.32;;;;;;;3.24;87.03;97770.22;5105636;28;20043;-63
2020/12/29 02:59:30;;;;;;;0.40;0.40;;;;;;;3.18;86.92;97763.50;5105513;28;20243;-65
2020/12/29 03:01:56;;;;;;;0.30;0.30;;;;;;;3.16;86.86;97748.16;5105616;28;20020;-64
2020/12/29 03:04:22;;;;;;;0.30;0.30;;;;;;;3.15;87.23;97771.22;5105624;28;20039;-63
2020/12/29 03:06:47;;;;;;;0.85;0.85;;;;;;;3.18;87.02;97773.75;5105375;28;20532;-63
2020/12/29 03:09:14;;;;;;;0.80;0.80;;;;;;;3.14;86.98;97770.41;5105237;28;20028;-64
2020/12/29 03:11:40;;;;;;;0.40;0.40;;;;;;;3.19;87.15;97771.16;5105456;28;20648;-63
2020/12/29 03:14:08;;;;;;;0.40;0.40;;;;;;;3.16;87.40;97763.53;5105284;28;20020;-64
2020/12/29 03:16:35;;;;;;;0.40;0.40;;;;;;;3.15;87.44;97772.09;5105240;28;20099;-63
2020/12/29 03:19:03;;;;;;;0.40;0.40;;;;;;;3.16;87.56;97768.66;5105054;28;20025;-63
2020/12/29 03:21:29;;;;;;;0.30;0.30;;;;;;;3.17;87.38;97760.09;5104332;28;20031;-63
2020/12/29 03:23:54;;;;;;;9.63;4.40;;;;;;;3.18;87.53;97763.50;5104924;28;20384;-64
2020/12/29 03:26:20;;;;;;;0.55;0.45;;;;;;;3.21;87.31;97768.56;5104817;28;20054;-64
2020/12/29 03:28:45;;;;;;;0.40;0.40;;;;;;;3.18;87.37;97773.75;5105078;28;20020;-64
2020/12/29 03:31:12;;;;;;;0.30;0.30;;;;;;;3.16;87.34;97772.94;5105005;28;20028;-64
2020/12/29 03:33:37;;;;;;;0.40;0.40;;;;;;;3.15;87.61;97745.59;5104656;28;20028;-62
2020/12/29 03:36:03;;;;;;;0.40;0.40;;;;;;;3.23;87.56;97748.84;5104565;28;20035;-63
2020/12/29 03:38:29;;;;;;;0.50;0.50;;;;;;;3.22;87.28;97748.03;5104285;28;20403;-64
2020/12/29 03:40:54;;;;;;;0.30;0.30;;;;;;;3.14;87.58;97743.91;5104971;28;20030;-64
2020/12/29 03:43:21;;;;;;;0.25;0.25;;;;;;;3.22;87.67;97744.59;5104696;28;20495;-63
2020/12/29 03:45:48;;;;;;;0.40;0.40;;;;;;;3.24;87.50;97747.13;5104475;28;20062;-64
2020/12/29 03:48:16;;;;;;;1.05;1.05;;;;;;;3.24;87.36;97734.31;5104635;28;20020;-64
2020/12/29 03:50:43;;;;;;;13.77;4.57;;;;;;;3.25;87.35;97733.44;5104681;28;20544;-64
2020/12/29 03:53:09;;;;;;;1.45;1.23;;;;;;;3.25;87.34;97736.84;5103149;28;20383;-64
2020/12/29 03:55:35;;;;;;;0.60;0.60;;;;;;;3.24;87.70;97737.72;5104159;28;20027;-63
2020/12/29 03:58:00;;;;;;;0.30;0.30;;;;;;;3.24;87.63;97726.63;5104401;28;20083;-64
2020/12/29 04:00:26;;;;;;;0.40;0.40;;;;;;;3.26;87.25;97732.56;5104491;28;20024;-64
2020/12/29 04:02:52;;;;;;;0.40;0.40;;;;;;;3.25;87.26;97738.56;5120080;28;20024;-65
2020/12/29 04:05:18;;;;;;;0.73;0.73;;;;;;;3.23;87.17;97736.03;5104123;28;20031;-63
2020/12/29 04:07:44;;;;;;;0.30;0.30;;;;;;;3.27;87.07;97737.66;5104331;28;20027;-63
2020/12/29 04:10:10;;;;;;;0.40;0.40;;;;;;;3.21;87.38;97737.78;5103911;28;20019;-63
2020/12/29 04:12:35;;;;;;;0.38;0.38;;;;;;;3.22;87.29;97740.34;5104116;28;20049;-63
2020/12/29 04:15:00;;;;;;;0.30;0.30;;;;;;;3.28;86.90;97730.78;5104101;28;20095;-63
2020/12/29 04:17:26;;;;;;;0.30;0.30;;;;;;;3.18;86.98;97733.56;5104095;28;20032;-64
2020/12/29 04:19:51;;;;;;;0.30;0.30;;;;;;;3.18;87.00;97728.44;5104010;28;20048;-63
2020/12/29 04:22:17;;;;;;;0.77;0.77;;;;;;;3.17;87.05;97729.31;5104089;28;20020;-64
2020/12/29 04:24:42;;;;;;;0.30;0.30;;;;;;;3.16;86.91;97726.78;5103800;28;20020;-64
2020/12/29 04:27:09;;;;;;;0.40;0.40;;;;;;;3.10;87.15;97728.59;5104009;28;20024;-64
2020/12/29 04:29:34;;;;;;;0.30;0.30;;;;;;;3.20;86.90;97741.22;5103898;28;20027;-63
2020/12/29 04:32:00;;;;;;;0.40;0.40;;;;;;;3.27;86.58;97737.66;5103794;28;20387;-63
2020/12/29 04:34:25;;;;;;;0.32;0.32;;;;;;;3.18;86.87;97738.69;5103684;28;20031;-63
2020/12/29 04:36:54;;;;;;;0.30;0.30;;;;;;;3.17;87.37;97729.31;5103445;28;20139;-63
2020/12/29 04:39:20;;;;;;;0.30;0.30;;;;;;;3.21;87.12;97730.09;5103477;28;20485;-63
2020/12/29 04:41:50;;;;;;;0.60;0.60;;;;;;;3.16;87.01;97730.22;5103973;28;20032;-63
2020/12/29 04:44:16;;;;;;;2.45;2.25;;;;;;;3.17;87.28;97734.44;5103693;28;20031;-62
2020/12/29 04:46:42;;;;;;;0.30;0.30;;;;;;;3.17;87.49;97724.19;5103559;28;20019;-62
2020/12/29 04:49:07;;;;;;;0.38;0.38;;;;;;;3.22;87.21;97731.78;5103768;28;20020;-62
2020/12/29 04:51:34;;;;;;;0.40;0.40;;;;;;;3.24;87.21;97726.63;5119390;28;20030;-63
2020/12/29 04:54:06;;;;;;;0.40;0.40;;;;;;;3.22;87.18;97730.06;5103440;28;20028;-62
2020/12/29 04:56:32;;;;;;;0.35;0.35;;;;;;;3.22;87.15;97732.63;5103605;28;20092;-63
2020/12/29 04:59:00;;;;;;;0.30;0.30;;;;;;;3.24;87.14;97732.59;5103660;28;20035;-62
2020/12/29 05:01:29;;;;;;;0.35;0.35;;;;;;;3.24;87.35;97729.19;5103722;28;20028;-62
2020/12/29 05:03:54;;;;;;;0.30;0.30;;;;;;;3.26;87.41;97737.69;5103532;28;20028;-63
2020/12/29 05:06:22;;;;;;;0.30;0.30;;;;;;;3.28;87.02;97730.78;5103652;28;20035;-63
2020/12/29 05:08:52;;;;;;;0.38;0.38;;;;;;;3.27;86.98;97735.09;5103271;28;20476;-63
2020/12/29 05:11:19;;;;;;;0.50;0.50;;;;;;;3.29;87.09;97735.06;5103511;28;20444;-63
2020/12/29 05:13:45;;;;;;;1.67;1.52;;;;;;;3.29;87.11;97732.50;5103335;28;20030;-62
2020/12/29 05:16:11;;;;;;;0.75;0.75;;;;;;;3.29;87.17;97732.50;5103342;28;20028;-62
2020/12/29 05:18:36;;;;;;;0.40;0.40;;;;;;;3.32;86.92;97729.88;5103616;28;20069;-63
2020/12/29 05:21:03;;;;;;;0.40;0.40;;;;;;;3.32;86.67;97743.50;5119115;28;20028;-62
2020/12/29 05:23:29;;;;;;;0.30;0.30;;;;;;;3.30;86.67;97732.47;5103088;28;20024;-62
2020/12/29 05:25:54;;;;;;;1.70;1.65;;;;;;;3.29;86.94;97738.44;5103421;28;20024;-62
2020/12/29 05:28:20;;;;;;;0.30;0.30;;;;;;;3.30;87.21;97739.31;5103685;28;20022;-62
2020/12/29 05:30:53;;;;;;;0.40;0.40;;;;;;;3.31;87.43;97733.28;5103238;28;20035;-63
2020/12/29 05:33:18;;;;;;;0.30;0.30;;;;;;;3.38;87.28;97741.69;5103307;28;20036;-63
2020/12/29 05:35:43;;;;;;;0.63;0.63;;;;;;;3.38;87.40;97742.56;5103150;28;20054;-64
2020/12/29 05:38:11;;;;;;;0.32;0.32;;;;;;;3.38;87.08;97747.69;5118788;28;20047;-63
2020/12/29 05:40:36;;;;;;;0.45;0.45;;;;;;;3.38;87.01;97737.41;5103183;28;20039;-63
2020/12/29 05:43:03;;;;;;;0.68;0.68;;;;;;;3.38;87.14;97734.00;5103424;28;20028;-63
2020/12/29 05:45:37;;;;;;;0.35;0.35;;;;;;;3.39;87.20;97730.56;5105902;28;20079;-63
2020/12/29 05:48:03;;;;;;;0.30;0.30;;;;;;;3.41;87.18;97732.22;5106965;28;20016;-63
2020/12/29 05:50:29;;;;;;;0.40;0.40;;;;;;;3.39;87.15;97738.25;5106724;28;20081;-63
2020/12/29 05:52:58;;;;;;;0.35;0.35;;;;;;;3.38;87.11;97742.56;5107056;28;20043;-63
2020/12/29 05:55:24;;;;;;;0.40;0.40;;;;;;;3.40;86.72;97745.94;5106544;28;20023;-63
2020/12/29 05:58:10;;;;;;;0.40;0.40;;;;;;;3.42;86.95;97753.59;5106788;28;20019;-63
2020/12/29 06:00:36;;;;;;;0.35;0.35;;;;;;;3.36;86.70;97741.72;5106551;28;20039;-64
2020/12/29 06:03:04;;;;;;;0.30;0.30;;;;;;;3.40;86.81;97756.19;5106579;28;20016;-63
2020/12/29 06:05:32;;;;;;;0.30;0.30;;;;;;;3.40;86.94;97747.66;5106337;28;20024;-62
2020/12/29 06:07:59;;;;;;;0.40;0.40;;;;;;;3.38;86.95;97746.81;5106650;28;20026;-63
2020/12/29 06:10:26;;;;;;;0.40;0.40;;;;;;;3.41;87.08;97747.59;5106045;28;20053;-63
2020/12/29 06:12:55;;;;;;;0.38;0.38;;;;;;;3.41;87.20;97744.19;5106322;28;20024;-63
2020/12/29 06:15:23;;;;;;;0.40;0.40;;;;;;;3.39;87.23;97741.66;5106088;28;20601;-63
2020/12/29 06:17:57;;;;;;;0.40;0.40;;;;;;;3.42;87.61;97739.03;5106012;28;20400;-63
2020/12/29 06:20:23;;;;;;;0.32;0.32;;;;;;;3.41;87.38;97732.22;5106279;28;20020;-63
2020/12/29 06:22:50;;;;;;;0.30;0.30;;;;;;;3.42;87.14;97738.22;5106229;28;20024;-63
2020/12/29 06:25:18;;;;;;;0.85;0.82;;;;;;;3.39;87.25;97739.09;5105940;28;20019;-64
2020/12/29 06:27:52;;;;;;;0.98;0.98;;;;;;;3.40;87.30;97735.69;5106069;28;20058;-63
2020/12/29 06:30:19;;;;;;;0.40;0.40;;;;;;;3.38;87.40;97740.00;5106410;28;20024;-63
2020/12/29 06:32:47;;;;;;;0.40;0.40;;;;;;;3.40;87.44;97742.50;5104822;28;20070;-63
2020/12/29 06:35:13;;;;;;;4.60;3.90;;;;;;;3.41;87.44;97732.22;5106004;28;20020;-64
2020/12/29 06:38:04;;;;;;;0.30;0.30;;;;;;;3.40;87.22;97748.50;5105852;28;20072;-62
2020/12/29 06:40:31;;;;;;;0.40;0.40;;;;;;;3.37;87.41;97751.09;5105683;28;20028;-63
2020/12/29 06:42:58;;;;;;;0.40;0.40;;;;;;;3.40;87.47;97755.34;5105982;28;20024;-63
2020/12/29 06:45:24;;;;;;;0.38;0.38;;;;;;;3.40;87.22;97751.06;5105740;28;20028;-63
2020/12/29 06:47:49;;;;;;;0.40;0.40;;;;;;;3.43;87.25;97756.13;5105873;28;20074;-63
2020/12/29 06:50:23;;;;;;;0.40;0.40;;;;;;;3.44;87.35;97755.25;5105538;28;20016;-62
2020/12/29 06:52:54;;;;;;;0.38;0.38;;;;;;;3.43;87.36;97756.13;5104516;28;20111;-62
2020/12/29 06:55:19;;;;;;;0.30;0.30;;;;;;;3.45;87.10;97764.59;5105042;28;20024;-62
2020/12/29 06:57:51;;;;;;;0.60;0.60;;;;;;;3.45;87.11;97768.91;5105315;28;20027;-63
2020/12/29 07:00:23;;;;;;;0.50;0.50;;;;;;;3.41;86.96;97767.28;5105169;28;20043;-63
2020/12/29 07:02:50;;;;;;;2.17;2.08;;;;;;;3.43;87.10;97775.78;5104923;28;20024;-63
2020/12/29 07:05:22;;;;;;;0.30;0.30;;;;;;;3.43;86.87;97779.22;5105112;28;20020;-63
2020/12/29 07:07:59;;;;;;;0.35;0.35;;;;;;;3.40;87.11;97781.00;5105325;28;20081;-63
2020/12/29 07:10:32;;;;;;;0.57;0.57;;;;;;;3.43;86.95;97783.47;5103560;28;20225;-63
2020/12/29 07:13:16;;;;;;;0.40;0.40;;;;;;;3.40;87.16;97789.53;5105347;28;20020;-63
2020/12/29 07:15:47;;;;;;;0.40;0.40;;;;;;;3.39;87.12;97785.25;5105153;28;20045;-63
2020/12/29 07:18:21;;;;;;;0.47;0.47;;;;;;;3.36;87.28;97785.34;5105194;28;20020;-63
2020/12/29 07:20:48;;;;;;;0.40;0.40;;;;;;;3.39;87.17;97779.28;5103624;28;20032;-63
2020/12/29 07:23:16;;;;;;;0.40;0.40;;;;;;;3.38;87.08;97775.03;5104958;28;20044;-63
2020/12/29 07:25:45;;;;;;;0.40;0.40;;;;;;;3.40;87.00;97765.59;5104451;28;20085;-63
2020/12/29 07:28:11;;;;;;;0.30;0.30;;;;;;;3.35;87.06;97773.41;5104699;28;20035;-63
2020/12/29 07:30:37;;;;;;;0.40;0.40;;;;;;;3.33;87.20;97777.72;5104734;28;20020;-63
2020/12/29 07:33:04;;;;;;;0.43;0.43;;;;;;;3.34;87.30;97782.81;5104703;28;20030;-64
2020/12/29 07:35:32;;;;;;;0.30;0.30;;;;;;;3.35;87.30;97796.47;5104453;28;20084;-63
2020/12/29 07:38:12;;;;;;;0.40;0.40;;;;;;;3.37;87.13;97794.69;5104457;28;20055;-63
2020/12/29 07:40:37;;;;;;;0.35;0.35;;;;;;;3.37;86.60;97802.41;5104204;28;20365;-63
2020/12/29 07:43:04;;;;;;;0.40;0.40;;;;;;;3.36;86.71;97780.19;5104336;28;20027;-62
2020/12/29 07:45:29;;;;;;;0.43;0.43;;;;;;;3.32;86.79;97781.97;5104356;28;20019;-63
2020/12/29 07:47:58;;;;;;;0.40;0.40;;;;;;;3.32;86.99;97793.97;5104419;28;20050;-63
2020/12/29 07:50:23;;;;;;;0.40;0.40;;;;;;;3.33;86.83;97787.97;5104360;28;20020;-63
2020/12/29 07:52:49;;;;;;;0.40;0.40;;;;;;;3.32;86.93;97784.53;5104598;28;20030;-64
2020/12/29 07:55:17;;;;;;;0.40;0.40;;;;;;;3.32;87.12;97787.09;5103796;28;20111;-63
2020/12/29 07:57:43;;;;;;;0.35;0.35;;;;;;;3.35;86.98;97791.34;5104212;28;20051;-64
2020/12/29 08:00:14;;;;;;;0.30;0.30;;;;;;;3.35;86.82;97786.22;5104193;28;20071;-64
2020/12/29 08:02:41;;;;;;;0.30;0.30;;;;;;;3.37;86.82;97786.19;5104195;28;20052;-64
2020/12/29 08:05:07;;;;;;;0.40;0.40;;;;;;;3.34;86.85;97776.81;5104038;28;20035;-63
2020/12/29 08:07:32;;;;;;;0.40;0.40;;;;;;;3.37;86.86;97786.19;5103886;28;20031;-64
2020/12/29 08:09:58;;;;;;;0.45;0.45;;;;;;;3.39;86.82;97775.00;5103817;28;20024;-63
2020/12/29 08:12:24;;;;;;;0.30;0.30;;;;;;;3.37;86.63;97769.06;5104325;28;20031;-63
2020/12/29 08:14:50;;;;;;;0.40;0.40;;;;;;;3.37;86.83;97771.63;5103855;28;20058;-63
2020/12/29 08:17:15;;;;;;;0.30;0.30;;;;;;;3.40;86.75;97773.28;5103860;28;20047;-64
2020/12/29 08:19:40;;;;;;;0.30;0.30;;;;;;;3.37;86.92;97771.63;5103880;28;20024;-64
2020/12/29 08:22:08;;;;;;;0.30;0.30;;;;;;;3.37;87.18;97771.63;5103882;28;20027;-63
2020/12/29 08:24:34;;;;;;;0.40;0.40;;;;;;;3.41;87.15;97774.97;5103410;28;20024;-63
2020/12/29 08:27:00;;;;;;;1.20;0.82;;;;;;;3.42;87.09;97772.38;5103959;28;20020;-63
2020/12/29 08:29:26;;;;;;;0.40;0.40;;;;;;;3.47;86.92;97769.69;5103979;28;20468;-64
2020/12/29 08:32:06;;;;;;;1.60;1.58;;;;;;;3.44;86.95;97768.06;5102369;28;20027;-63
2020/12/29 08:34:33;;;;;;;0.30;0.30;;;;;;;3.51;86.76;97762.78;5103546;28;20020;-63
2020/12/29 08:37:00;;;;;;;0.30;0.30;;;;;;;3.46;86.92;97756.06;5103497;28;20131;-63
2020/12/29 08:40:02;;;;;;;0.30;0.30;;;;;;;3.49;86.90;97759.41;5103486;28;20031;-64
2020/12/29 08:42:31;;;;;;;2.67;2.47;;;;;;;3.48;86.92;97753.47;5103645;28;20385;-63
2020/12/29 08:44:58;;;;;;;0.35;0.35;;;;;;;3.47;86.90;97752.59;5103379;28;20039;-65
2020/12/29 08:47:31;;;;;;;0.40;0.40;;;;;;;3.49;86.95;97749.16;5103886;28;20063;-65
2020/12/29 08:49:56;;;;;;;0.30;0.30;;;;;;;3.50;87.01;97745.72;5103764;28;20487;-64
2020/12/29 08:52:31;;;;;;;0.38;0.38;;;;;;;3.51;86.91;97744.84;5103754;28;20036;-64
2020/12/29 08:54:57;;;;;;;1.15;1.15;;;;;;;3.50;86.82;97745.72;5102298;28;20028;-64
2020/12/29 08:57:28;;;;;;;0.40;0.40;;;;;;;3.49;86.95;97747.44;5103406;28;20024;-63
2020/12/29 08:59:53;;;;;;;0.40;0.40;;;;;;;3.54;86.84;97755.03;5103563;28;20042;-63
2020/12/29 09:02:28;;;;;;;0.30;0.30;;;;;;;3.49;86.71;97746.59;5103743;28;20024;-64
2020/12/29 09:04:59;;;;;;;1.33;1.30;;;;;;;3.50;87.05;97753.41;5103584;28;20016;-64
2020/12/29 09:07:28;;;;;;;0.60;0.60;;;;;;;3.51;86.89;97757.66;5103742;28;20027;-64
2020/12/29 09:09:53;;;;;;;0.32;0.32;;;;;;;3.47;86.92;97755.16;5103633;28;20024;-64
2020/12/29 09:12:28;;;;;;;0.50;0.50;;;;;;;3.44;87.13;97736.44;5103715;28;20031;-63
2020/12/29 09:14:58;;;;;;;0.30;0.30;;;;;;;3.48;87.23;97743.19;5103542;28;20023;-64
2020/12/29 09:17:31;;;;;;;0.50;0.50;;;;;;;3.50;87.16;97750.84;5103526;28;20078;-63
2020/12/29 09:20:09;;;;;;;0.55;0.55;;;;;;;3.47;87.23;97757.72;5105419;28;20053;-63
2020/12/29 09:22:46;;;;;;;0.50;0.50;;;;;;;3.46;87.23;97756.06;5107365;28;20020;-64
2020/12/29 09:25:20;;;;;;;6.47;1.95;;;;;;;3.46;87.29;97763.75;5107055;28;20031;-63
2020/12/29 09:27:45;;;;;;;0.40;0.40;;;;;;;3.49;87.17;97761.97;5107266;28;20031;-63
2020/12/29 09:30:12;;;;;;;0.40;0.40;;;;;;;3.47;87.04;97752.59;5122602;28;20024;-63
2020/12/29 09:32:38;;;;;;;0.30;0.30;;;;;;;3.46;87.16;97755.19;5107156;28;20054;-64
2020/12/29 09:35:25;;;;;;;0.30;0.30;;;;;;;3.50;87.12;97750.84;5106892;28;20136;-63
2020/12/29 09:37:50;;;;;;;0.40;0.40;;;;;;;3.50;87.11;97755.97;5106822;28;20364;-63
2020/12/29 09:40:15;;;;;;;0.30;0.30;;;;;;;3.49;87.25;97746.59;5106442;28;20024;-63
2020/12/29 09:42:41;;;;;;;0.35;0.35;;;;;;;3.53;87.32;97748.22;5107014;28;20027;-64
2020/12/29 09:45:06;;;;;;;0.30;0.30;;;;;;;3.56;87.31;97754.09;5106666;28;20074;-62
2020/12/29 09:47:32;;;;;;;0.40;0.40;;;;;;;3.56;87.13;97761.78;5107150;28;20024;-64
2020/12/29 09:49:57;;;;;;;0.63;0.63;;;;;;;3.60;87.11;97752.31;5106651;28;20023;-63
2020/12/29 09:52:23;;;;;;;0.60;0.60;;;;;;;3.61;87.10;97756.56;5106879;28;20065;-64
2020/12/29 09:54:48;;;;;;;0.43;0.43;;;;;;;3.60;87.28;97752.31;5122208;28;20039;-62
2020/12/29 09:57:14;;;;;;;0.25;0.25;;;;;;;3.65;87.30;97750.50;5106881;28;20024;-65
2020/12/29 09:59:39;;;;;;;0.30;0.30;;;;;;;3.66;87.39;97770.13;5106870;28;20463;-64
2020/12/29 10:02:04;;;;;;;0.30;0.30;;;;;;;3.70;87.43;97746.13;5106848;28;20028;-63
2020/12/29 10:04:30;;;;;;;0.30;0.30;;;;;;;3.75;87.53;97750.28;5106764;28;20031;-63
2020/12/29 10:06:55;;;;;;;1.40;1.40;;;;;;;3.78;87.49;97745.94;5106651;28;20024;-63
2020/12/29 10:09:20;;;;;;;0.30;0.30;;;;;;;3.80;87.13;97743.31;5106429;28;20030;-64
2020/12/29 10:11:46;;;;;;;1.13;1.13;;;;;;;3.82;87.06;97752.66;5106802;28;20020;-65
2020/12/29 10:14:11;;;;;;;3.80;3.50;;;;;;;3.86;87.17;97763.72;5106570;28;20487;-63
2020/12/29 10:16:36;;;;;;;0.30;0.30;;;;;;;3.86;87.35;97745.75;5106440;28;20028;-65
2020/12/29 10:19:02;;;;;;;0.35;0.35;;;;;;;3.88;87.08;97740.56;5106574;28;20099;-64
2020/12/29 10:21:27;;;;;;;0.30;0.30;;;;;;;3.87;87.22;97739.72;5106611;28;20316;-63
2020/12/29 10:23:55;;;;;;;3.22;2.65;;;;;;;3.87;87.18;97744.00;5106186;28;20020;-63
2020/12/29 10:26:20;;;;;;;0.98;0.90;;;;;;;3.88;87.20;97744.00;5106328;28;20103;-65
2020/12/29 10:28:46;;;;;;;0.30;0.30;;;;;;;3.90;86.91;97739.63;5106416;28;20035;-63
2020/12/29 10:31:11;;;;;;;0.30;0.30;;;;;;;3.90;86.99;97738.81;5105972;28;20061;-64
2020/12/29 10:33:36;;;;;;;0.30;0.30;;;;;;;3.87;86.87;97744.00;5106357;28;20035;-64
2020/12/29 10:36:02;;;;;;;0.40;0.40;;;;;;;3.92;86.68;97737.03;5105934;28;20028;-64
2020/12/29 10:38:27;;;;;;;0.30;0.30;;;;;;;3.93;86.61;97734.44;5106186;28;20020;-64
2020/12/29 10:40:52;;;;;;;0.30;0.30;;;;;;;3.95;86.64;97737.81;5105837;28;20016;-64
2020/12/29 10:43:18;;;;;;;0.40;0.40;;;;;;;3.94;86.57;97746.41;5106083;28;20112;-63
2020/12/29 10:45:43;;;;;;;0.40;0.40;;;;;;;3.92;86.63;97744.75;5105894;28;20109;-66
2020/12/29 10:48:08;;;;;;;0.40;0.40;;;;;;;3.98;86.13;97731.75;5106253;28;20020;-64
2020/12/29 10:50:34;;;;;;;0.70;0.70;;;;;;;3.94;86.59;97741.28;5106071;28;20028;-64
2020/12/29 10:52:59;;;;;;;0.30;0.30;;;;;;;3.90;86.44;97731.94;5106061;28;20024;-64
2020/12/29 10:55:24;;;;;;;0.93;0.93;;;;;;;3.99;86.43;97743.72;5105561;28;20028;-64
2020/12/29 10:57:50;;;;;;;0.38;0.38;;;;;;;4.02;86.36;97737.66;5105578;28;20107;-65
2020/12/29 11:00:15;;;;;;;0.40;0.40;;;;;;;4.04;86.38;97746.16;5105721;28;20028;-63
2020/12/29 11:02:40;;;;;;;0.30;0.30;;;;;;;4.05;86.23;97737.59;5105854;28;20083;-64
2020/12/29 11:05:06;;;;;;;0.30;0.30;;;;;;;4.06;86.29;97739.25;5121088;28;20510;-63
2020/12/29 11:07:31;;;;;;;0.30;0.30;;;;;;;4.12;86.09;97735.72;5105408;28;20030;-64
2020/12/29 11:09:56;;;;;;;0.30;0.30;;;;;;;4.12;85.88;97726.25;5105133;28;20089;-63
2020/12/29 11:12:22;;;;;;;0.60;0.60;;;;;;;4.13;85.97;97727.09;5105396;28;20055;-63
2020/12/29 11:14:47;;;;;;;0.30;0.30;;;;;;;4.12;85.79;97715.16;5105151;28;20113;-62
2020/12/29 11:17:12;;;;;;;0.30;0.30;;;;;;;4.12;85.81;97721.13;5105142;28;20070;-63
2020/12/29 11:19:38;;;;;;;0.40;0.40;;;;;;;4.15;86.00;97717.66;5105282;28;20028;-64
2020/12/29 11:22:03;;;;;;;0.30;0.30;;;;;;;4.14;85.88;97716.81;5105115;28;20118;-63
2020/12/29 11:24:28;;;;;;;0.40;0.40;;;;;;;4.18;85.70;97720.13;5104913;28;20123;-63
2020/12/29 11:26:54;;;;;;;0.30;0.30;;;;;;;4.18;85.93;97717.56;5105078;28;20019;-63
2020/12/29 11:29:19;;;;;;;0.40;0.40;;;;;;;4.25;85.61;97716.53;5105302;28;20023;-63
2020/12/29 11:31:44;;;;;;;0.30;0.30;;;;;;;4.26;85.44;97719.94;5103674;28;20024;-63
2020/12/29 11:34:10;;;;;;;0.40;0.40;;;;;;;4.26;85.65;97714.81;5120463;28;20376;-64
2020/12/29 11:36:35;;;;;;;0.30;0.30;;;;;;;4.26;85.84;97717.38;5104438;28;20161;-63
2020/12/29 11:39:00;;;;;;;0.40;0.40;;;;;;;4.29;85.82;97722.44;5104470;28;20035;-63
2020/12/29 11:41:26;;;;;;;0.30;0.30;;;;;;;4.31;85.53;97711.22;5104316;28;20042;-64